sensor_id;sensor_type;location;lat;lon;timestamp;P1;durP1;ratioP1;P2;durP2;ratioP2
21822;SDS011;11074;48.596;9.238;2022-11-18T00:01:03;0.68;;;0.35;;
21822;SDS011;11074;48.596;9.238;2022-11-18T00:03:38;0.68;;;0.30;;
21822;SDS011;11074;48.596;9.238;2022-11-18T00:06:05;1.38;;;0.30;;
21822;SDS011;11074;48.596;9.238;2022-11-18T00:08:35;0.95;;;0.30;;
21822;SDS011;11074;48.596;9.238;2022-11-18T00:11:04;1.30;;;0.40;;
21822;SDS011;11074;48.596;9.238;2022-11-18T00:13:33;1.35;;;0.57;;
21822;SDS011;11074;48.596;9.238;2022-11-18T00:16:17;1.50;;;0.85;;
21822;SDS011;11074;48.596;9.238;2022-11-18T00:18:43;1.08;;;0.70;;
21822;SDS011;11074;48.596;9.238;2022-11-18T00:21:10;0.90;;;0.50;;
21822;SDS011;11074;48.596;9.238;2022-11-18T00:23:36;0.98;;;0.55;;
21822;SDS011;11074;48.596;9.238;2022-11-18T00:26:04;1.05;;;0.60;;
21822;SDS011;11074;48.596;9.238;2022-11-18T00:28:33;1.33;;;0.70;;
21822;SDS011;11074;48.596;9.238;2022-11-18T00:31:01;0.82;;;0.52;;
21822;SDS011;11074;48.596;9.238;2022-11-18T00:33:32;1.77;;;0.90;;
21822;SDS011;11074;48.596;9.238;2022-11-18T00:35:58;2.30;;;0.70;;
21822;SDS011;11074;48.596;9.238;2022-11-18T00:38:24;1.42;;;0.60;;
21822;SDS011;11074;48.596;9.238;2022-11-18T00:40:57;1.55;;;0.45;;
21822;SDS011;11074;48.596;9.238;2022-11-18T00:43:42;0.70;;;0.50;;
21822;SDS011;11074;48.596;9.238;2022-11-18T00:46:09;1.02;;;0.40;;
21822;SDS011;11074;48.596;9.238;2022-11-18T00:48:36;1.40;;;0.45;;
21822;SDS011;11074;48.596;9.238;2022-11-18T00:51:13;1.33;;;0.55;;
21822;SDS011;11074;48.596;9.238;2022-11-18T00:53:41;0.65;;;0.45;;
21822;SDS011;11074;48.596;9.238;2022-11-18T00:56:07;2.38;;;0.60;;
21822;SDS011;11074;48.596;9.238;2022-11-18T00:58:34;0.93;;;0.68;;
21822;SDS011;11074;48.596;9.238;2022-11-18T01:01:00;0.82;;;0.55;;
21822;SDS011;11074;48.596;9.238;2022-11-18T01:03:27;0.70;;;0.47;;
21822;SDS011;11074;48.596;9.238;2022-11-18T01:05:54;0.70;;;0.47;;
21822;SDS011;11074;48.596;9.238;2022-11-18T01:08:19;1.92;;;0.70;;
21822;SDS011;11074;48.596;9.238;2022-11-18T01:10:46;1.63;;;0.70;;
21822;SDS011;11074;48.596;9.238;2022-11-18T01:13:14;2.97;;;1.08;;
21822;SDS011;11074;48.596;9.238;2022-11-18T01:15:45;3.53;;;1.85;;
21822;SDS011;11074;48.596;9.238;2022-11-18T01:18:21;5.53;;;2.80;;
21822;SDS011;11074;48.596;9.238;2022-11-18T01:20:50;7.05;;;3.88;;
21822;SDS011;11074;48.596;9.238;2022-11-18T01:23:16;7.32;;;3.60;;
21822;SDS011;11074;48.596;9.238;2022-11-18T01:25:44;2.25;;;1.15;;
21822;SDS011;11074;48.596;9.238;2022-11-18T01:28:13;3.28;;;1.73;;
21822;SDS011;11074;48.596;9.238;2022-11-18T01:30:40;3.50;;;1.40;;
21822;SDS011;11074;48.596;9.238;2022-11-18T01:33:06;2.28;;;0.60;;
21822;SDS011;11074;48.596;9.238;2022-11-18T01:35:33;0.80;;;0.50;;
21822;SDS011;11074;48.596;9.238;2022-11-18T01:38:04;2.10;;;0.80;;
21822;SDS011;11074;48.596;9.238;2022-11-18T01:40:32;3.20;;;1.15;;
21822;SDS011;11074;48.596;9.238;2022-11-18T01:42:59;1.23;;;0.80;;
21822;SDS011;11074;48.596;9.238;2022-11-18T01:47:58;1.30;;;0.73;;
21822;SDS011;11074;48.596;9.238;2022-11-18T01:50:38;0.95;;;0.50;;
21822;SDS011;11074;48.596;9.238;2022-11-18T01:53:13;2.17;;;0.55;;
21822;SDS011;11074;48.596;9.238;2022-11-18T01:55:46;5.25;;;2.40;;
21822;SDS011;11074;48.596;9.238;2022-11-18T01:58:29;4.63;;;1.88;;
21822;SDS011;11074;48.596;9.238;2022-11-18T02:01:18;6.30;;;2.53;;
21822;SDS011;11074;48.596;9.238;2022-11-18T02:03:44;6.20;;;2.10;;
21822;SDS011;11074;48.596;9.238;2022-11-18T02:06:12;4.95;;;2.00;;
21822;SDS011;11074;48.596;9.238;2022-11-18T02:08:38;3.30;;;1.50;;
21822;SDS011;11074;48.596;9.238;2022-11-18T02:11:08;2.20;;;0.85;;
21822;SDS011;11074;48.596;9.238;2022-11-18T02:13:56;0.80;;;0.57;;
21822;SDS011;11074;48.596;9.238;2022-11-18T02:22:41;8.60;;;4.43;;
21822;SDS011;11074;48.596;9.238;2022-11-18T02:26:03;2.38;;;1.20;;
21822;SDS011;11074;48.596;9.238;2022-11-18T02:29:39;2.47;;;1.17;;
21822;SDS011;11074;48.596;9.238;2022-11-18T02:31:44;2.60;;;1.00;;
21822;SDS011;11074;48.596;9.238;2022-11-18T02:34:37;3.42;;;0.80;;
21822;SDS011;11074;48.596;9.238;2022-11-18T02:37:22;2.40;;;1.05;;
21822;SDS011;11074;48.596;9.238;2022-11-18T02:40:01;1.60;;;0.80;;
21822;SDS011;11074;48.596;9.238;2022-11-18T02:42:36;1.20;;;0.68;;
21822;SDS011;11074;48.596;9.238;2022-11-18T02:45:07;3.67;;;0.68;;
21822;SDS011;11074;48.596;9.238;2022-11-18T02:47:39;0.70;;;0.50;;
21822;SDS011;11074;48.596;9.238;2022-11-18T02:50:11;1.00;;;0.47;;
21822;SDS011;11074;48.596;9.238;2022-11-18T02:52:44;0.53;;;0.43;;
21822;SDS011;11074;48.596;9.238;2022-11-18T02:55:15;1.45;;;0.40;;
21822;SDS011;11074;48.596;9.238;2022-11-18T02:57:44;1.63;;;0.60;;
21822;SDS011;11074;48.596;9.238;2022-11-18T03:00:12;1.20;;;0.35;;
21822;SDS011;11074;48.596;9.238;2022-11-18T03:02:39;0.68;;;0.40;;
21822;SDS011;11074;48.596;9.238;2022-11-18T03:05:15;2.30;;;0.40;;
21822;SDS011;11074;48.596;9.238;2022-11-18T03:08:15;0.77;;;0.40;;
21822;SDS011;11074;48.596;9.238;2022-11-18T03:10:51;3.05;;;0.70;;
21822;SDS011;11074;48.596;9.238;2022-11-18T03:13:34;2.55;;;0.52;;
21822;SDS011;11074;48.596;9.238;2022-11-18T03:16:22;2.03;;;0.45;;
21822;SDS011;11074;48.596;9.238;2022-11-18T03:19:19;1.55;;;0.30;;
21822;SDS011;11074;48.596;9.238;2022-11-18T03:22:25;1.55;;;0.43;;
21822;SDS011;11074;48.596;9.238;2022-11-18T03:25:09;0.85;;;0.30;;
21822;SDS011;11074;48.596;9.238;2022-11-18T03:27:49;1.67;;;0.50;;
21822;SDS011;11074;48.596;9.238;2022-11-18T03:30:29;0.82;;;0.30;;
21822;SDS011;11074;48.596;9.238;2022-11-18T03:33:00;1.30;;;0.45;;
21822;SDS011;11074;48.596;9.238;2022-11-18T03:35:34;0.68;;;0.30;;
21822;SDS011;11074;48.596;9.238;2022-11-18T03:38:07;0.90;;;0.40;;
21822;SDS011;11074;48.596;9.238;2022-11-18T03:40:41;1.02;;;0.40;;
21822;SDS011;11074;48.596;9.238;2022-11-18T03:43:19;1.02;;;0.45;;
21822;SDS011;11074;48.596;9.238;2022-11-18T03:45:51;1.27;;;0.52;;
21822;SDS011;11074;48.596;9.238;2022-11-18T03:48:28;0.93;;;0.50;;
21822;SDS011;11074;48.596;9.238;2022-11-18T03:51:04;2.80;;;0.50;;
21822;SDS011;11074;48.596;9.238;2022-11-18T03:53:35;1.20;;;0.50;;
21822;SDS011;11074;48.596;9.238;2022-11-18T03:56:08;1.15;;;0.63;;
21822;SDS011;11074;48.596;9.238;2022-11-18T04:01:46;3.10;;;0.63;;
21822;SDS011;11074;48.596;9.238;2022-11-18T04:04:34;1.33;;;0.75;;
21822;SDS011;11074;48.596;9.238;2022-11-18T04:07:02;1.15;;;0.65;;
21822;SDS011;11074;48.596;9.238;2022-11-18T04:09:37;1.08;;;0.40;;
21822;SDS011;11074;48.596;9.238;2022-11-18T04:12:16;1.10;;;0.60;;
21822;SDS011;11074;48.596;9.238;2022-11-18T04:14:45;1.38;;;0.60;;
21822;SDS011;11074;48.596;9.238;2022-11-18T04:17:19;0.75;;;0.50;;
21822;SDS011;11074;48.596;9.238;2022-11-18T04:22:13;4.90;;;2.38;;
21822;SDS011;11074;48.596;9.238;2022-11-18T04:24:40;4.90;;;2.00;;
21822;SDS011;11074;48.596;9.238;2022-11-18T04:27:06;4.45;;;2.28;;
21822;SDS011;11074;48.596;9.238;2022-11-18T04:29:32;2.50;;;1.30;;
21822;SDS011;11074;48.596;9.238;2022-11-18T04:31:59;5.68;;;1.48;;
21822;SDS011;11074;48.596;9.238;2022-11-18T04:34:26;0.95;;;0.70;;
21822;SDS011;11074;48.596;9.238;2022-11-18T04:36:52;1.67;;;0.75;;
21822;SDS011;11074;48.596;9.238;2022-11-18T04:39:18;1.08;;;0.60;;
21822;SDS011;11074;48.596;9.238;2022-11-18T04:41:44;1.17;;;0.43;;
21822;SDS011;11074;48.596;9.238;2022-11-18T04:44:19;0.60;;;0.38;;
21822;SDS011;11074;48.596;9.238;2022-11-18T04:46:52;1.30;;;0.30;;
21822;SDS011;11074;48.596;9.238;2022-11-18T04:49:21;0.20;;;0.20;;
21822;SDS011;11074;48.596;9.238;2022-11-18T04:51:48;0.98;;;0.30;;
21822;SDS011;11074;48.596;9.238;2022-11-18T04:54:15;0.40;;;0.20;;
21822;SDS011;11074;48.596;9.238;2022-11-18T04:56:42;1.73;;;0.30;;
21822;SDS011;11074;48.596;9.238;2022-11-18T04:59:09;0.63;;;0.30;;
21822;SDS011;11074;48.596;9.238;2022-11-18T05:01:35;1.05;;;0.40;;
21822;SDS011;11074;48.596;9.238;2022-11-18T05:04:02;0.80;;;0.38;;
21822;SDS011;11074;48.596;9.238;2022-11-18T05:06:29;0.98;;;0.40;;
21822;SDS011;11074;48.596;9.238;2022-11-18T05:08:57;0.90;;;0.32;;
21822;SDS011;11074;48.596;9.238;2022-11-18T05:11:25;5.00;;;0.50;;
21822;SDS011;11074;48.596;9.238;2022-11-18T05:14:11;0.52;;;0.30;;
21822;SDS011;11074;48.596;9.238;2022-11-18T05:16:37;2.33;;;0.40;;
21822;SDS011;11074;48.596;9.238;2022-11-18T05:19:03;1.45;;;0.50;;
21822;SDS011;11074;48.596;9.238;2022-11-18T05:21:30;0.73;;;0.50;;
21822;SDS011;11074;48.596;9.238;2022-11-18T05:23:59;0.98;;;0.50;;
21822;SDS011;11074;48.596;9.238;2022-11-18T05:26:26;1.02;;;0.70;;
21822;SDS011;11074;48.596;9.238;2022-11-18T05:28:52;2.10;;;0.80;;
21822;SDS011;11074;48.596;9.238;2022-11-18T05:31:18;1.75;;;0.82;;
21822;SDS011;11074;48.596;9.238;2022-11-18T05:33:44;1.65;;;0.77;;
21822;SDS011;11074;48.596;9.238;2022-11-18T05:36:11;1.27;;;0.60;;
21822;SDS011;11074;48.596;9.238;2022-11-18T05:38:39;0.70;;;0.43;;
21822;SDS011;11074;48.596;9.238;2022-11-18T05:41:06;1.20;;;0.50;;
21822;SDS011;11074;48.596;9.238;2022-11-18T05:43:33;0.55;;;0.40;;
21822;SDS011;11074;48.596;9.238;2022-11-18T05:46:00;1.08;;;0.25;;
21822;SDS011;11074;48.596;9.238;2022-11-18T05:48:27;0.95;;;0.47;;
21822;SDS011;11074;48.596;9.238;2022-11-18T05:50:53;0.77;;;0.40;;
21822;SDS011;11074;48.596;9.238;2022-11-18T05:53:21;0.65;;;0.40;;
21822;SDS011;11074;48.596;9.238;2022-11-18T05:58:57;1.40;;;0.40;;
21822;SDS011;11074;48.596;9.238;2022-11-18T06:01:24;1.05;;;0.40;;
21822;SDS011;11074;48.596;9.238;2022-11-18T06:03:58;0.95;;;0.50;;
21822;SDS011;11074;48.596;9.238;2022-11-18T06:06:29;0.50;;;0.40;;
21822;SDS011;11074;48.596;9.238;2022-11-18T06:08:56;1.65;;;0.50;;
21822;SDS011;11074;48.596;9.238;2022-11-18T06:11:28;1.23;;;0.43;;
21822;SDS011;11074;48.596;9.238;2022-11-18T06:14:16;0.80;;;0.40;;
21822;SDS011;11074;48.596;9.238;2022-11-18T06:16:50;1.13;;;0.63;;
21822;SDS011;11074;48.596;9.238;2022-11-18T06:19:21;0.40;;;0.38;;
21822;SDS011;11074;48.596;9.238;2022-11-18T06:21:48;1.67;;;0.50;;
21822;SDS011;11074;48.596;9.238;2022-11-18T06:24:14;1.13;;;0.50;;
21822;SDS011;11074;48.596;9.238;2022-11-18T06:26:42;1.42;;;0.50;;
21822;SDS011;11074;48.596;9.238;2022-11-18T06:29:09;1.60;;;0.50;;
21822;SDS011;11074;48.596;9.238;2022-11-18T06:31:39;0.75;;;0.40;;
21822;SDS011;11074;48.596;9.238;2022-11-18T06:34:05;0.93;;;0.40;;
21822;SDS011;11074;48.596;9.238;2022-11-18T06:36:30;0.43;;;0.40;;
21822;SDS011;11074;48.596;9.238;2022-11-18T06:39:00;0.80;;;0.32;;
21822;SDS011;11074;48.596;9.238;2022-11-18T06:41:28;0.82;;;0.50;;
21822;SDS011;11074;48.596;9.238;2022-11-18T06:43:54;0.60;;;0.43;;
21822;SDS011;11074;48.596;9.238;2022-11-18T06:46:19;1.58;;;0.57;;
21822;SDS011;11074;48.596;9.238;2022-11-18T06:49:04;0.45;;;0.45;;
21822;SDS011;11074;48.596;9.238;2022-11-18T06:51:29;1.80;;;0.68;;
21822;SDS011;11074;48.596;9.238;2022-11-18T06:53:55;1.13;;;0.63;;
21822;SDS011;11074;48.596;9.238;2022-11-18T06:56:21;0.90;;;0.60;;
21822;SDS011;11074;48.596;9.238;2022-11-18T06:58:51;0.90;;;0.70;;
21822;SDS011;11074;48.596;9.238;2022-11-18T07:01:23;1.23;;;0.73;;
21822;SDS011;11074;48.596;9.238;2022-11-18T07:03:51;0.93;;;0.70;;
21822;SDS011;11074;48.596;9.238;2022-11-18T07:06:19;2.17;;;0.70;;
21822;SDS011;11074;48.596;9.238;2022-11-18T07:08:47;1.67;;;0.93;;
21822;SDS011;11074;48.596;9.238;2022-11-18T07:11:15;1.95;;;1.10;;
21822;SDS011;11074;48.596;9.238;2022-11-18T07:13:43;2.45;;;1.00;;
21822;SDS011;11074;48.596;9.238;2022-11-18T07:16:14;1.92;;;1.10;;
21822;SDS011;11074;48.596;9.238;2022-11-18T07:18:42;1.50;;;1.05;;
21822;SDS011;11074;48.596;9.238;2022-11-18T07:21:14;1.50;;;1.00;;
21822;SDS011;11074;48.596;9.238;2022-11-18T07:23:43;1.73;;;1.17;;
21822;SDS011;11074;48.596;9.238;2022-11-18T07:26:10;4.25;;;1.10;;
21822;SDS011;11074;48.596;9.238;2022-11-18T07:28:36;3.75;;;1.58;;
21822;SDS011;11074;48.596;9.238;2022-11-18T07:31:06;1.67;;;1.10;;
21822;SDS011;11074;48.596;9.238;2022-11-18T07:33:40;1.95;;;1.38;;
21822;SDS011;11074;48.596;9.238;2022-11-18T07:38:36;3.83;;;1.73;;
21822;SDS011;11074;48.596;9.238;2022-11-18T07:41:05;3.00;;;2.10;;
21822;SDS011;11074;48.596;9.238;2022-11-18T07:43:40;3.33;;;1.80;;
21822;SDS011;11074;48.596;9.238;2022-11-18T07:46:20;3.50;;;1.60;;
21822;SDS011;11074;48.596;9.238;2022-11-18T07:48:49;3.78;;;1.77;;
21822;SDS011;11074;48.596;9.238;2022-11-18T07:51:18;4.30;;;1.92;;
21822;SDS011;11074;48.596;9.238;2022-11-18T07:53:48;3.50;;;1.70;;
21822;SDS011;11074;48.596;9.238;2022-11-18T07:56:14;2.50;;;1.70;;
21822;SDS011;11074;48.596;9.238;2022-11-18T07:58:40;2.92;;;1.75;;
21822;SDS011;11074;48.596;9.238;2022-11-18T08:03:38;2.58;;;1.73;;
21822;SDS011;11074;48.596;9.238;2022-11-18T08:06:05;5.07;;;1.95;;
21822;SDS011;11074;48.596;9.238;2022-11-18T08:08:33;2.78;;;1.70;;
21822;SDS011;11074;48.596;9.238;2022-11-18T08:11:01;4.15;;;1.50;;
21822;SDS011;11074;48.596;9.238;2022-11-18T08:13:30;3.72;;;2.08;;
21822;SDS011;11074;48.596;9.238;2022-11-18T08:15:57;3.78;;;2.08;;
21822;SDS011;11074;48.596;9.238;2022-11-18T08:18:23;4.25;;;2.08;;
21822;SDS011;11074;48.596;9.238;2022-11-18T08:20:49;3.55;;;2.20;;
21822;SDS011;11074;48.596;9.238;2022-11-18T08:23:15;5.55;;;2.00;;
21822;SDS011;11074;48.596;9.238;2022-11-18T08:25:42;2.72;;;1.60;;
21822;SDS011;11074;48.596;9.238;2022-11-18T08:28:10;3.15;;;1.38;;
21822;SDS011;11074;48.596;9.238;2022-11-18T08:30:38;2.22;;;1.50;;
21822;SDS011;11074;48.596;9.238;2022-11-18T08:33:04;2.00;;;1.27;;
21822;SDS011;11074;48.596;9.238;2022-11-18T08:35:31;3.95;;;1.20;;
21822;SDS011;11074;48.596;9.238;2022-11-18T08:37:57;1.77;;;1.20;;
21822;SDS011;11074;48.596;9.238;2022-11-18T08:40:23;2.67;;;1.20;;
21822;SDS011;11074;48.596;9.238;2022-11-18T08:42:50;2.28;;;1.13;;
21822;SDS011;11074;48.596;9.238;2022-11-18T08:45:16;1.80;;;1.00;;
21822;SDS011;11074;48.596;9.238;2022-11-18T08:47:42;1.58;;;1.00;;
21822;SDS011;11074;48.596;9.238;2022-11-18T08:50:09;2.45;;;0.90;;
21822;SDS011;11074;48.596;9.238;2022-11-18T08:52:36;1.40;;;0.93;;
21822;SDS011;11074;48.596;9.238;2022-11-18T08:55:02;1.30;;;0.90;;
21822;SDS011;11074;48.596;9.238;2022-11-18T08:57:28;2.13;;;1.08;;
21822;SDS011;11074;48.596;9.238;2022-11-18T08:59:55;1.60;;;1.00;;
21822;SDS011;11074;48.596;9.238;2022-11-18T09:02:22;5.50;;;1.30;;
21822;SDS011;11074;48.596;9.238;2022-11-18T09:04:48;3.17;;;1.23;;
21822;SDS011;11074;48.596;9.238;2022-11-18T09:07:18;3.35;;;1.00;;
21822;SDS011;11074;48.596;9.238;2022-11-18T09:09:45;5.40;;;0.98;;
21822;SDS011;11074;48.596;9.238;2022-11-18T09:12:12;2.78;;;1.15;;
21822;SDS011;11074;48.596;9.238;2022-11-18T09:14:42;2.00;;;0.98;;
21822;SDS011;11074;48.596;9.238;2022-11-18T09:17:09;2.17;;;1.20;;
21822;SDS011;11074;48.596;9.238;2022-11-18T09:19:36;2.03;;;0.95;;
21822;SDS011;11074;48.596;9.238;2022-11-18T09:22:05;3.17;;;1.55;;
21822;SDS011;11074;48.596;9.238;2022-11-18T09:24:32;5.88;;;1.90;;
21822;SDS011;11074;48.596;9.238;2022-11-18T09:27:02;2.88;;;2.05;;
21822;SDS011;11074;48.596;9.238;2022-11-18T09:29:30;6.40;;;4.60;;
21822;SDS011;11074;48.596;9.238;2022-11-18T09:31:56;11.13;;;7.55;;
21822;SDS011;11074;48.596;9.238;2022-11-18T09:34:25;5.40;;;4.50;;
21822;SDS011;11074;48.596;9.238;2022-11-18T09:36:52;5.55;;;4.60;;
21822;SDS011;11074;48.596;9.238;2022-11-18T09:39:20;4.55;;;3.30;;
21822;SDS011;11074;48.596;9.238;2022-11-18T09:41:59;3.50;;;2.63;;
21822;SDS011;11074;48.596;9.238;2022-11-18T09:45:00;4.05;;;2.60;;
21822;SDS011;11074;48.596;9.238;2022-11-18T09:47:48;4.68;;;2.70;;
21822;SDS011;11074;48.596;9.238;2022-11-18T09:50:16;5.22;;;3.10;;
21822;SDS011;11074;48.596;9.238;2022-11-18T09:53:03;5.47;;;3.30;;
21822;SDS011;11074;48.596;9.238;2022-11-18T09:55:47;7.78;;;3.35;;
21822;SDS011;11074;48.596;9.238;2022-11-18T09:58:21;6.47;;;3.10;;
21822;SDS011;11074;48.596;9.238;2022-11-18T10:01:00;4.68;;;2.38;;
21822;SDS011;11074;48.596;9.238;2022-11-18T10:03:28;8.60;;;2.60;;
21822;SDS011;11074;48.596;9.238;2022-11-18T10:06:04;5.88;;;2.40;;
21822;SDS011;11074;48.596;9.238;2022-11-18T10:08:56;5.22;;;2.25;;
21822;SDS011;11074;48.596;9.238;2022-11-18T10:20:17;3.25;;;1.80;;
21822;SDS011;11074;48.596;9.238;2022-11-18T10:23:10;3.78;;;1.90;;
21822;SDS011;11074;48.596;9.238;2022-11-18T10:25:51;2.83;;;1.60;;
21822;SDS011;11074;48.596;9.238;2022-11-18T10:30:50;6.60;;;1.30;;
21822;SDS011;11074;48.596;9.238;2022-11-18T10:35:45;2.30;;;1.35;;
21822;SDS011;11074;48.596;9.238;2022-11-18T10:40:38;3.22;;;1.60;;
21822;SDS011;11074;48.596;9.238;2022-11-18T10:43:46;3.63;;;1.48;;
21822;SDS011;11074;48.596;9.238;2022-11-18T10:46:25;2.15;;;1.25;;
21822;SDS011;11074;48.596;9.238;2022-11-18T10:49:09;2.05;;;1.10;;
21822;SDS011;11074;48.596;9.238;2022-11-18T10:51:45;1.75;;;1.27;;
21822;SDS011;11074;48.596;9.238;2022-11-18T10:54:33;2.17;;;0.73;;
21822;SDS011;11074;48.596;9.238;2022-11-18T11:02:44;2.17;;;0.90;;
21822;SDS011;11074;48.596;9.238;2022-11-18T11:05:18;1.52;;;0.80;;
21822;SDS011;11074;48.596;9.238;2022-11-18T11:08:21;2.35;;;0.60;;
21822;SDS011;11074;48.596;9.238;2022-11-18T11:10:55;1.30;;;0.60;;
21822;SDS011;11074;48.596;9.238;2022-11-18T11:13:24;0.70;;;0.47;;
21822;SDS011;11074;48.596;9.238;2022-11-18T11:15:55;1.52;;;0.70;;
21822;SDS011;11074;48.596;9.238;2022-11-18T11:18:28;1.23;;;0.80;;
21822;SDS011;11074;48.596;9.238;2022-11-18T11:21:10;0.90;;;0.68;;
21822;SDS011;11074;48.596;9.238;2022-11-18T11:23:41;1.52;;;0.77;;
21822;SDS011;11074;48.596;9.238;2022-11-18T11:26:13;1.95;;;0.80;;
21822;SDS011;11074;48.596;9.238;2022-11-18T11:31:48;3.63;;;1.10;;
21822;SDS011;11074;48.596;9.238;2022-11-18T11:34:53;4.88;;;1.60;;
21822;SDS011;11074;48.596;9.238;2022-11-18T11:38:13;4.53;;;2.30;;
21822;SDS011;11074;48.596;9.238;2022-11-18T11:41:20;4.00;;;1.80;;
21822;SDS011;11074;48.596;9.238;2022-11-18T11:47:27;12.98;;;5.47;;
21822;SDS011;11074;48.596;9.238;2022-11-18T12:04:59;2.85;;;1.58;;
21822;SDS011;11074;48.596;9.238;2022-11-18T12:07:51;3.42;;;1.48;;
21822;SDS011;11074;48.596;9.238;2022-11-18T12:11:04;4.78;;;2.75;;
21822;SDS011;11074;48.596;9.238;2022-11-18T12:13:22;2.50;;;1.70;;
21822;SDS011;11074;48.596;9.238;2022-11-18T12:16:00;2.38;;;1.77;;
21822;SDS011;11074;48.596;9.238;2022-11-18T12:18:47;4.03;;;1.83;;
21822;SDS011;11074;48.596;9.238;2022-11-18T12:32:27;2.85;;;1.70;;
21822;SDS011;11074;48.596;9.238;2022-11-18T12:40:09;3.08;;;1.40;;
21822;SDS011;11074;48.596;9.238;2022-11-18T12:51:46;1.67;;;1.20;;
21822;SDS011;11074;48.596;9.238;2022-11-18T12:56:59;3.08;;;1.10;;
21822;SDS011;11074;48.596;9.238;2022-11-18T12:59:36;3.10;;;1.10;;
21822;SDS011;11074;48.596;9.238;2022-11-18T13:02:15;1.48;;;0.93;;
21822;SDS011;11074;48.596;9.238;2022-11-18T13:05:03;1.75;;;0.88;;
21822;SDS011;11074;48.596;9.238;2022-11-18T13:07:34;3.60;;;1.30;;
21822;SDS011;11074;48.596;9.238;2022-11-18T13:10:46;2.78;;;1.50;;
21822;SDS011;11074;48.596;9.238;2022-11-18T13:13:39;1.98;;;1.00;;
21822;SDS011;11074;48.596;9.238;2022-11-18T13:16:24;1.55;;;1.10;;
21822;SDS011;11074;48.596;9.238;2022-11-18T13:19:09;1.48;;;0.80;;
21822;SDS011;11074;48.596;9.238;2022-11-18T13:21:56;1.55;;;0.90;;
21822;SDS011;11074;48.596;9.238;2022-11-18T13:24:46;2.17;;;0.87;;
21822;SDS011;11074;48.596;9.238;2022-11-18T13:30:11;2.05;;;1.17;;
21822;SDS011;11074;48.596;9.238;2022-11-18T13:32:42;3.20;;;1.15;;
21822;SDS011;11074;48.596;9.238;2022-11-18T13:35:17;1.88;;;1.25;;
21822;SDS011;11074;48.596;9.238;2022-11-18T13:37:59;3.30;;;1.02;;
21822;SDS011;11074;48.596;9.238;2022-11-18T13:40:27;4.63;;;1.30;;
21822;SDS011;11074;48.596;9.238;2022-11-18T13:43:01;2.30;;;1.02;;
21822;SDS011;11074;48.596;9.238;2022-11-18T13:45:28;1.80;;;0.80;;
21822;SDS011;11074;48.596;9.238;2022-11-18T13:47:58;1.35;;;0.80;;
21822;SDS011;11074;48.596;9.238;2022-11-18T13:58:41;3.28;;;1.27;;
21822;SDS011;11074;48.596;9.238;2022-11-18T14:01:17;2.80;;;0.90;;
21822;SDS011;11074;48.596;9.238;2022-11-18T14:03:48;4.35;;;1.10;;
21822;SDS011;11074;48.596;9.238;2022-11-18T14:06:39;2.10;;;0.98;;
21822;SDS011;11074;48.596;9.238;2022-11-18T14:11:44;2.33;;;1.48;;
21822;SDS011;11074;48.596;9.238;2022-11-18T14:14:45;2.50;;;1.98;;
21822;SDS011;11074;48.596;9.238;2022-11-18T14:17:22;2.97;;;1.73;;
21822;SDS011;11074;48.596;9.238;2022-11-18T14:19:51;2.50;;;1.60;;
21822;SDS011;11074;48.596;9.238;2022-11-18T14:22:23;4.38;;;1.52;;
21822;SDS011;11074;48.596;9.238;2022-11-18T14:24:53;2.97;;;1.75;;
21822;SDS011;11074;48.596;9.238;2022-11-18T14:27:40;2.33;;;1.13;;
21822;SDS011;11074;48.596;9.238;2022-11-18T14:33:02;3.00;;;1.40;;
21822;SDS011;11074;48.596;9.238;2022-11-18T14:38:23;3.00;;;1.55;;
21822;SDS011;11074;48.596;9.238;2022-11-18T14:41:02;4.20;;;1.33;;
21822;SDS011;11074;48.596;9.238;2022-11-18T14:43:31;2.22;;;1.60;;
21822;SDS011;11074;48.596;9.238;2022-11-18T14:45:58;6.93;;;1.95;;
21822;SDS011;11074;48.596;9.238;2022-11-18T14:48:28;2.25;;;1.73;;
21822;SDS011;11074;48.596;9.238;2022-11-18T14:50:59;2.95;;;1.70;;
21822;SDS011;11074;48.596;9.238;2022-11-18T14:53:24;2.53;;;1.48;;
21822;SDS011;11074;48.596;9.238;2022-11-18T14:55:50;3.05;;;1.27;;
21822;SDS011;11074;48.596;9.238;2022-11-18T14:58:20;2.55;;;1.75;;
21822;SDS011;11074;48.596;9.238;2022-11-18T15:00:46;3.25;;;1.95;;
21822;SDS011;11074;48.596;9.238;2022-11-18T15:03:13;5.05;;;2.55;;
21822;SDS011;11074;48.596;9.238;2022-11-18T15:05:39;4.72;;;2.08;;
21822;SDS011;11074;48.596;9.238;2022-11-18T15:08:06;4.10;;;1.60;;
21822;SDS011;11074;48.596;9.238;2022-11-18T15:10:32;2.35;;;1.50;;
21822;SDS011;11074;48.596;9.238;2022-11-18T15:12:59;4.68;;;1.52;;
21822;SDS011;11074;48.596;9.238;2022-11-18T15:15:25;3.15;;;1.67;;
21822;SDS011;11074;48.596;9.238;2022-11-18T15:17:51;1.95;;;1.20;;
21822;SDS011;11074;48.596;9.238;2022-11-18T15:20:19;2.83;;;1.20;;
21822;SDS011;11074;48.596;9.238;2022-11-18T15:22:46;2.47;;;1.30;;
21822;SDS011;11074;48.596;9.238;2022-11-18T15:25:12;2.22;;;1.30;;
21822;SDS011;11074;48.596;9.238;2022-11-18T15:27:38;3.85;;;1.50;;
21822;SDS011;11074;48.596;9.238;2022-11-18T15:30:04;3.70;;;1.20;;
21822;SDS011;11074;48.596;9.238;2022-11-18T15:32:31;8.98;;;6.53;;
21822;SDS011;11074;48.596;9.238;2022-11-18T15:34:56;4.60;;;3.50;;
21822;SDS011;11074;48.596;9.238;2022-11-18T15:37:22;3.97;;;2.58;;
21822;SDS011;11074;48.596;9.238;2022-11-18T15:39:48;2.63;;;1.50;;
21822;SDS011;11074;48.596;9.238;2022-11-18T15:42:14;2.30;;;1.38;;
21822;SDS011;11074;48.596;9.238;2022-11-18T15:44:42;3.78;;;2.03;;
21822;SDS011;11074;48.596;9.238;2022-11-18T15:47:08;3.08;;;1.88;;
21822;SDS011;11074;48.596;9.238;2022-11-18T15:49:35;2.30;;;1.50;;
21822;SDS011;11074;48.596;9.238;2022-11-18T15:52:01;2.50;;;1.30;;
21822;SDS011;11074;48.596;9.238;2022-11-18T15:54:26;2.15;;;1.45;;
21822;SDS011;11074;48.596;9.238;2022-11-18T15:56:52;1.58;;;1.17;;
21822;SDS011;11074;48.596;9.238;2022-11-18T15:59:18;4.85;;;1.08;;
21822;SDS011;11074;48.596;9.238;2022-11-18T16:01:44;1.80;;;1.08;;
21822;SDS011;11074;48.596;9.238;2022-11-18T16:04:14;1.80;;;0.90;;
21822;SDS011;11074;48.596;9.238;2022-11-18T16:06:42;2.22;;;0.90;;
21822;SDS011;11074;48.596;9.238;2022-11-18T16:09:09;1.42;;;0.60;;
21822;SDS011;11074;48.596;9.238;2022-11-18T16:11:36;2.42;;;0.88;;
21822;SDS011;11074;48.596;9.238;2022-11-18T16:16:49;3.05;;;1.40;;
21822;SDS011;11074;48.596;9.238;2022-11-18T16:19:18;5.38;;;2.47;;
21822;SDS011;11074;48.596;9.238;2022-11-18T16:21:48;3.78;;;2.30;;
21822;SDS011;11074;48.596;9.238;2022-11-18T16:24:19;4.10;;;1.73;;
21822;SDS011;11074;48.596;9.238;2022-11-18T16:26:50;2.70;;;1.77;;
21822;SDS011;11074;48.596;9.238;2022-11-18T16:29:16;4.18;;;1.98;;
21822;SDS011;11074;48.596;9.238;2022-11-18T16:31:42;2.63;;;1.70;;
21822;SDS011;11074;48.596;9.238;2022-11-18T16:36:50;6.95;;;4.20;;
21822;SDS011;11074;48.596;9.238;2022-11-18T16:39:22;11.13;;;6.55;;
21822;SDS011;11074;48.596;9.238;2022-11-18T16:41:51;15.75;;;9.38;;
21822;SDS011;11074;48.596;9.238;2022-11-18T16:44:19;11.82;;;7.60;;
21822;SDS011;11074;48.596;9.238;2022-11-18T16:46:45;7.95;;;5.40;;
21822;SDS011;11074;48.596;9.238;2022-11-18T16:49:17;9.80;;;6.25;;
21822;SDS011;11074;48.596;9.238;2022-11-18T16:51:46;6.55;;;3.15;;
21822;SDS011;11074;48.596;9.238;2022-11-18T16:54:33;5.47;;;3.58;;
21822;SDS011;11074;48.596;9.238;2022-11-18T16:56:59;6.50;;;2.60;;
21822;SDS011;11074;48.596;9.238;2022-11-18T16:59:26;6.05;;;2.42;;
21822;SDS011;11074;48.596;9.238;2022-11-18T17:01:55;6.35;;;2.00;;
21822;SDS011;11074;48.596;9.238;2022-11-18T17:04:23;4.43;;;2.10;;
21822;SDS011;11074;48.596;9.238;2022-11-18T17:06:50;4.75;;;2.10;;
21822;SDS011;11074;48.596;9.238;2022-11-18T17:09:18;3.97;;;1.52;;
21822;SDS011;11074;48.596;9.238;2022-11-18T17:11:46;5.18;;;1.88;;
21822;SDS011;11074;48.596;9.238;2022-11-18T17:14:13;3.78;;;2.00;;
21822;SDS011;11074;48.596;9.238;2022-11-18T17:16:39;4.60;;;2.38;;